createdAt,value
2018-12-25T00:01:20.787Z,102806.97
2018-12-25T00:04:25.990Z,102801.43
2018-12-25T00:07:31.215Z,102790.73
2018-12-25T00:10:36.297Z,102796.77
2018-12-25T00:13:41.440Z,102795.62
2018-12-25T00:16:46.579Z,102792.58
2018-12-25T00:19:51.681Z,102778.64
2018-12-25T00:22:56.817Z,102777.97
2018-12-25T00:26:01.968Z,102781.23
2018-12-25T00:29:07.080Z,102777.41
2018-12-25T00:32:12.205Z,102770.13
2018-12-25T00:35:17.350Z,102764.38
2018-12-25T00:38:22.464Z,102756.63
2018-12-25T00:41:27.582Z,102772.41
2018-12-25T00:44:32.735Z,102774.39
2018-12-25T00:47:37.873Z,102774.20
2018-12-25T00:50:42.981Z,102769.81
2018-12-25T00:53:48.106Z,102773.41
2018-12-25T00:56:53.291Z,102760.67
2018-12-25T00:59:58.399Z,102763.82
2018-12-25T01:03:03.652Z,102756.20
2018-12-25T01:06:08.791Z,102769.11
2018-12-25T01:09:13.920Z,102762.93
2018-12-25T01:12:19.117Z,102766.53
2018-12-25T01:15:24.225Z,102757.80
2018-12-25T01:18:29.332Z,102760.57
2018-12-25T01:21:34.436Z,102761.92
2018-12-25T01:24:39.541Z,102758.54
2018-12-25T01:27:44.683Z,102776.38
2018-12-25T01:30:49.774Z,102773.86
2018-12-25T01:33:54.896Z,102780.23
2018-12-25T01:37:00.018Z,102778.59
2018-12-25T01:40:05.467Z,102771.98
2018-12-25T01:43:10.555Z,102777.19
2018-12-25T01:46:15.696Z,102775.65
2018-12-25T01:49:20.809Z,102772.95
2018-12-25T01:52:25.920Z,102765.15
2018-12-25T01:55:31.030Z,102768.48
2018-12-25T01:58:36.125Z,102764.06
2018-12-25T02:01:41.226Z,102759.33
2018-12-25T02:04:46.369Z,102757.61
2018-12-25T02:07:51.482Z,102757.27
2018-12-25T02:10:56.683Z,102747.83
2018-12-25T02:14:01.813Z,102740.93
2018-12-25T02:17:06.999Z,102731.53
2018-12-25T02:20:12.213Z,102736.00
2018-12-25T02:23:17.393Z,102734.02
2018-12-25T02:26:22.525Z,102734.20
2018-12-25T02:29:27.716Z,102725.25
2018-12-25T02:32:32.849Z,102721.05
2018-12-25T02:35:37.999Z,102725.14
2018-12-25T02:38:43.138Z,102725.73
2018-12-25T02:41:48.332Z,102719.33
2018-12-25T02:44:53.473Z,102718.20
2018-12-25T02:47:58.650Z,102720.75
2018-12-25T02:51:03.817Z,102718.88
2018-12-25T02:54:08.943Z,102717.78
2018-12-25T02:57:14.097Z,102716.48
2018-12-25T03:00:19.204Z,102719.55
2018-12-25T03:03:24.309Z,102715.69
2018-12-25T03:06:30.105Z,102702.05
2018-12-25T03:09:35.325Z,102703.05
2018-12-25T03:12:40.465Z,102707.40
2018-12-25T03:15:45.569Z,102702.45
2018-12-25T03:18:50.748Z,102700.02
2018-12-25T03:21:55.885Z,102696.64
2018-12-25T03:25:01.009Z,102694.43
2018-12-25T03:28:06.191Z,102680.08
2018-12-25T03:31:11.354Z,102689.38
2018-12-25T03:34:16.457Z,102686.48
2018-12-25T03:37:21.628Z,102683.97
2018-12-25T03:40:26.762Z,102687.23
2018-12-25T03:43:31.861Z,102679.55
2018-12-25T03:46:37.007Z,102677.48
2018-12-25T03:49:42.159Z,102673.66
2018-12-25T03:52:47.292Z,102668.41
2018-12-25T03:55:52.523Z,102675.53
2018-12-25T03:58:57.634Z,102666.45
2018-12-25T04:02:02.764Z,102668.33
2018-12-25T04:05:08.051Z,102661.89
2018-12-25T04:08:13.147Z,102668.33
2018-12-25T04:11:18.272Z,102658.89
2018-12-25T04:14:23.393Z,102650.14
2018-12-25T04:17:28.556Z,102649.99
2018-12-25T04:20:33.677Z,102660.16
2018-12-25T04:23:38.818Z,102651.56
2018-12-25T04:26:43.940Z,102660.03
2018-12-25T04:29:49.074Z,102650.27
2018-12-25T04:32:54.176Z,102654.63
2018-12-25T04:35:59.278Z,102652.64
2018-12-25T04:39:05.940Z,102650.24
2018-12-25T04:42:11.066Z,102655.67
2018-12-25T04:45:16.155Z,102643.37
2018-12-25T04:48:21.311Z,102650.27
2018-12-25T04:51:26.430Z,102646.94
2018-12-25T04:54:31.552Z,102642.23
2018-12-25T04:57:36.660Z,102647.09
2018-12-25T05:00:41.793Z,102648.74
2018-12-25T05:03:46.945Z,102650.21
2018-12-25T05:06:52.088Z,102654.56
2018-12-25T05:09:57.224Z,102647.45
2018-12-25T05:13:02.360Z,102651.46
2018-12-25T05:16:07.662Z,102638.30
2018-12-25T05:19:12.809Z,102645.95
2018-12-25T05:22:17.915Z,102647.14
2018-12-25T05:25:23.041Z,102665.55
2018-12-25T05:28:28.143Z,102687.86
2018-12-25T05:31:33.298Z,102677.89
2018-12-25T05:34:38.437Z,102670.31
2018-12-25T05:37:43.565Z,102680.06
2018-12-25T05:40:48.710Z,102676.16
2018-12-25T05:43:53.856Z,102678.86
2018-12-25T05:46:59.105Z,102675.16
2018-12-25T05:50:04.323Z,102658.46
2018-12-25T05:53:09.514Z,102660.54
2018-12-25T05:56:14.708Z,102660.45
2018-12-25T05:59:19.848Z,102660.45
2018-12-25T06:02:24.987Z,102662.41
2018-12-25T06:05:30.091Z,102671.75
2018-12-25T06:08:35.236Z,102673.55
2018-12-25T06:11:40.351Z,102673.74
2018-12-25T06:14:45.561Z,102674.60
2018-12-25T06:17:50.704Z,102663.91
2018-12-25T06:20:55.809Z,102649.80
2018-12-25T06:24:01.047Z,102671.97
2018-12-25T06:27:06.170Z,102666.90
2018-12-25T06:30:11.334Z,102677.36
2018-12-25T06:33:16.450Z,102681.56
2018-12-25T06:36:21.567Z,102678.30
2018-12-25T06:39:26.689Z,102679.80
2018-12-25T06:42:31.866Z,102671.10
2018-12-25T06:45:36.976Z,102663.59
2018-12-25T06:48:42.135Z,102671.09
2018-12-25T06:51:47.258Z,102670.63
2018-12-25T06:54:52.404Z,102658.62
2018-12-25T06:57:57.501Z,102645.49
2018-12-25T07:01:02.722Z,102645.98
2018-12-25T07:04:07.802Z,102639.87
2018-12-25T07:07:12.924Z,102634.63
2018-12-25T07:10:18.059Z,102631.03
2018-12-25T07:13:23.157Z,102642.55
2018-12-25T07:16:28.360Z,102638.28
2018-12-25T07:19:33.484Z,102638.65
2018-12-25T07:22:38.635Z,102633.48
2018-12-25T07:25:43.781Z,102624.34
2018-12-25T07:28:48.929Z,102623.30
2018-12-25T07:31:54.045Z,102626.45
2018-12-25T07:34:59.188Z,102623.91
2018-12-25T07:38:04.378Z,102621.11
2018-12-25T07:41:09.527Z,102619.50
2018-12-25T07:44:14.665Z,102633.30
2018-12-25T07:47:19.760Z,102632.36
2018-12-25T07:50:24.935Z,102639.06
2018-12-25T07:53:30.050Z,102628.16
2018-12-25T07:56:35.157Z,102642.25
2018-12-25T07:59:40.286Z,102643.81
2018-12-25T08:02:45.427Z,102647.31
2018-12-25T08:05:50.531Z,102649.59
2018-12-25T08:08:55.640Z,102637.17
2018-12-25T08:12:01.972Z,102642.33
2018-12-25T08:15:07.367Z,102640.03
2018-12-25T08:18:12.505Z,102638.53
2018-12-25T08:21:17.719Z,102657.83
2018-12-25T08:24:22.848Z,102647.91
2018-12-25T08:27:27.963Z,102648.04
2018-12-25T08:30:33.095Z,102643.69
2018-12-25T08:33:38.208Z,102644.81
2018-12-25T08:36:43.353Z,102645.28
2018-12-25T08:39:48.453Z,102643.34
2018-12-25T08:42:53.604Z,102639.93
2018-12-25T08:45:58.690Z,102636.43
2018-12-25T08:49:03.864Z,102632.28
2018-12-25T08:52:09.009Z,102638.72
2018-12-25T08:55:14.213Z,102641.27
2018-12-25T08:58:19.304Z,102644.31
2018-12-25T09:01:24.431Z,102644.48
2018-12-25T09:04:29.541Z,102651.85
2018-12-25T09:07:34.698Z,102644.70
2018-12-25T09:10:39.819Z,102637.95
2018-12-25T09:13:44.969Z,102630.48
2018-12-25T09:16:50.112Z,102629.86
2018-12-25T09:19:55.208Z,102622.13
2018-12-25T09:23:00.331Z,102626.61
2018-12-25T09:26:05.662Z,102618.89
2018-12-25T09:29:10.776Z,102623.52
2018-12-25T09:32:15.929Z,102622.87
2018-12-25T09:35:21.041Z,102629.29
2018-12-25T09:38:26.178Z,102634.70
2018-12-25T09:41:31.417Z,102644.83
2018-12-25T09:44:36.626Z,102642.33
2018-12-25T09:47:41.731Z,102631.23
2018-12-25T09:50:46.880Z,102641.56
2018-12-25T09:53:52.021Z,102636.86
2018-12-25T09:56:57.212Z,102635.56
2018-12-25T10:00:02.340Z,102635.88
2018-12-25T10:03:07.487Z,102649.91
2018-12-25T10:06:12.595Z,102652.12
2018-12-25T10:09:17.764Z,102645.20
2018-12-25T10:12:22.923Z,102649.75
2018-12-25T10:15:28.053Z,102655.22
2018-12-25T10:18:33.254Z,102653.86
2018-12-25T10:21:38.372Z,102653.16
2018-12-25T10:24:43.658Z,102642.52
2018-12-25T10:27:48.835Z,102637.85
2018-12-25T10:30:53.961Z,102635.15
2018-12-25T10:33:59.101Z,102632.14
2018-12-25T10:37:04.350Z,102623.48
2018-12-25T10:40:09.798Z,102622.66
2018-12-25T10:43:14.924Z,102624.20
2018-12-25T10:46:20.123Z,102624.73
2018-12-25T10:49:25.320Z,102606.98
2018-12-25T10:52:30.503Z,102619.33
2018-12-25T10:55:35.700Z,102621.23
2018-12-25T10:58:40.896Z,102608.28
2018-12-25T11:01:46.035Z,102612.03
2018-12-25T11:04:51.181Z,102612.23
2018-12-25T11:07:56.298Z,102611.70
2018-12-25T11:11:01.442Z,102610.88
2018-12-25T11:14:06.556Z,102598.05
2018-12-25T11:17:11.686Z,102599.73
2018-12-25T11:20:16.880Z,102593.98
2018-12-25T11:23:22.008Z,102577.38
2018-12-25T11:26:27.113Z,102583.45
2018-12-25T11:29:32.253Z,102584.14
2018-12-25T11:32:37.353Z,102583.12
2018-12-25T11:35:42.465Z,102592.42
2018-12-25T11:38:47.601Z,102597.47
2018-12-25T11:41:52.719Z,102597.45
2018-12-25T11:44:57.870Z,102585.95
2018-12-25T11:48:02.971Z,102588.80
2018-12-25T11:51:08.141Z,102592.34
2018-12-25T11:54:13.259Z,102586.77
2018-12-25T11:57:18.392Z,102581.36
2018-12-25T12:00:23.479Z,102578.69
2018-12-25T12:03:28.597Z,102571.43
2018-12-25T12:06:33.682Z,102589.52
2018-12-25T12:09:38.796Z,102586.97
2018-12-25T12:12:43.985Z,102583.94
2018-12-25T12:15:49.091Z,102578.48
2018-12-25T12:18:54.248Z,102591.52
2018-12-25T12:21:59.376Z,102594.22
2018-12-25T12:25:04.816Z,102598.08
2018-12-25T12:28:09.950Z,102611.81
2018-12-25T12:31:15.065Z,102614.34
2018-12-25T12:34:20.184Z,102617.70
2018-12-25T12:37:25.295Z,102616.52
2018-12-25T12:40:30.405Z,102613.16
2018-12-25T12:43:35.538Z,102608.89
2018-12-25T12:46:40.656Z,102615.00
2018-12-25T12:49:45.774Z,102621.07
2018-12-25T12:52:50.903Z,102616.02
2018-12-25T12:55:56.009Z,102619.72
2018-12-25T12:59:01.142Z,102619.87
2018-12-25T13:02:06.328Z,102627.66
2018-12-25T13:05:11.524Z,102622.57
2018-12-25T13:08:16.622Z,102622.95
2018-12-25T13:11:21.743Z,102619.87
2018-12-25T13:14:26.935Z,102612.94
2018-12-25T13:17:32.064Z,102614.79
2018-12-25T13:20:37.195Z,102623.59
2018-12-25T13:23:42.358Z,102619.33
2018-12-25T13:26:47.492Z,102621.88
2018-12-25T13:29:52.686Z,102618.02
2018-12-25T13:32:57.800Z,102627.65
2018-12-25T13:36:02.920Z,102628.63
2018-12-25T13:39:08.892Z,102623.05
2018-12-25T13:42:14.002Z,102624.88
2018-12-25T13:45:19.120Z,102620.29
2018-12-25T13:48:24.320Z,102615.69
2018-12-25T13:51:29.486Z,102613.03
2018-12-25T13:54:34.600Z,102614.18
2018-12-25T13:57:39.717Z,102613.19
2018-12-25T14:00:45.631Z,102609.64
2018-12-25T14:03:50.762Z,102603.41
2018-12-25T14:06:55.867Z,102593.58
2018-12-25T14:10:01.056Z,102592.42
2018-12-25T14:13:06.175Z,102591.23
2018-12-25T14:16:11.375Z,102582.09
2018-12-25T14:19:16.568Z,102579.33
2018-12-25T14:22:21.688Z,102575.77
2018-12-25T14:25:26.824Z,102577.30
2018-12-25T14:28:31.944Z,102573.22
2018-12-25T14:31:37.053Z,102584.68
2018-12-25T14:34:42.154Z,102589.22
2018-12-25T14:37:47.350Z,102591.52
2018-12-25T14:40:52.529Z,102595.05
2018-12-25T14:44:04.944Z,102586.22
2018-12-25T14:47:04.508Z,102587.66
2018-12-25T14:50:09.992Z,102591.15
2018-12-25T14:53:19.724Z,102590.03
2018-12-25T14:56:22.152Z,102583.36
2018-12-25T14:59:27.366Z,102583.64
2018-12-25T15:02:32.480Z,102582.06
2018-12-25T15:05:37.634Z,102580.31
2018-12-25T15:08:42.780Z,102587.38
2018-12-25T15:11:47.923Z,102572.13
2018-12-25T15:14:54.315Z,102577.83
2018-12-25T15:17:59.588Z,102572.09
2018-12-25T15:21:04.714Z,102572.25
2018-12-25T15:24:09.854Z,102562.47
2018-12-25T15:27:14.978Z,102569.43
2018-12-25T15:30:20.118Z,102575.63
2018-12-25T15:33:25.310Z,102585.94
2018-12-25T15:36:30.414Z,102573.84
2018-12-25T15:39:35.548Z,102590.19
2018-12-25T15:42:40.690Z,102588.09
2018-12-25T15:45:45.837Z,102591.28
2018-12-25T15:48:50.997Z,102582.94
2018-12-25T15:51:56.138Z,102575.14
2018-12-25T15:55:01.335Z,102580.20
2018-12-25T15:58:06.761Z,102581.55
2018-12-25T16:01:11.882Z,102572.19
2018-12-25T16:04:17.005Z,102575.94
2018-12-25T16:07:22.133Z,102576.16
2018-12-25T16:10:27.257Z,102576.64
2018-12-25T16:13:32.399Z,102579.68
2018-12-25T16:16:37.499Z,102580.50
2018-12-25T16:19:42.633Z,102577.54
2018-12-25T16:22:47.797Z,102574.84
2018-12-25T16:25:52.931Z,102584.47
2018-12-25T16:28:58.131Z,102582.63
2018-12-25T16:32:03.279Z,102592.37
2018-12-25T16:35:09.057Z,102586.13
2018-12-25T16:38:14.181Z,102579.00
2018-12-25T16:41:19.305Z,102590.92
2018-12-25T16:44:24.407Z,102591.45
2018-12-25T16:47:29.549Z,102584.33
2018-12-25T16:50:34.766Z,102594.82
2018-12-25T16:53:41.876Z,102583.05
2018-12-25T16:56:46.778Z,102589.42
2018-12-25T16:59:51.900Z,102593.77
2018-12-25T17:02:57.064Z,102601.04
2018-12-25T17:06:02.172Z,102596.84
2018-12-25T17:09:08.628Z,102597.92
2018-12-25T17:12:13.721Z,102593.80
2018-12-25T17:15:18.879Z,102600.02
2018-12-25T17:18:24.051Z,102601.06
2018-12-25T17:21:29.117Z,102603.58
2018-12-25T17:24:34.276Z,102599.08
2018-12-25T17:27:39.412Z,102595.89
2018-12-25T17:30:44.541Z,102601.29
2018-12-25T17:33:49.727Z,102594.39
2018-12-25T17:36:54.866Z,102592.18
2018-12-25T17:39:59.970Z,102592.21
2018-12-25T17:43:05.176Z,102593.63
2018-12-25T17:46:10.316Z,102589.58
2018-12-25T17:49:15.468Z,102590.35
2018-12-25T17:52:20.586Z,102582.25
2018-12-25T17:55:25.748Z,102579.77
2018-12-25T17:58:30.875Z,102575.08
2018-12-25T18:01:36.037Z,102575.41
2018-12-25T18:04:41.178Z,102577.31
2018-12-25T18:07:46.280Z,102576.48
2018-12-25T18:10:51.417Z,102583.78
2018-12-25T18:13:56.555Z,102580.62
2018-12-25T18:17:01.684Z,102586.59
2018-12-25T18:20:07.507Z,102578.50
2018-12-25T18:23:12.646Z,102588.34
2018-12-25T18:26:17.781Z,102593.88
2018-12-25T18:29:22.978Z,102590.80
2018-12-25T18:32:28.135Z,102591.11
2018-12-25T18:35:33.316Z,102590.13
2018-12-25T18:38:38.415Z,102593.04
2018-12-25T18:41:43.640Z,102594.45
2018-12-25T18:44:48.779Z,102595.88
2018-12-25T18:47:53.902Z,102597.41
2018-12-25T18:50:59.018Z,102590.11
2018-12-25T18:54:04.259Z,102598.45
2018-12-25T18:57:09.387Z,102598.51
2018-12-25T19:00:14.688Z,102605.42
2018-12-25T19:03:19.816Z,102598.66
2018-12-25T19:06:24.964Z,102595.75
2018-12-25T19:09:30.072Z,102595.10
2018-12-25T19:12:35.217Z,102591.93
2018-12-25T19:15:40.366Z,102585.52
2018-12-25T19:18:45.562Z,102591.12
2018-12-25T19:21:50.703Z,102582.48
2018-12-25T19:24:55.819Z,102585.67
2018-12-25T19:28:00.949Z,102578.81
2018-12-25T19:31:06.092Z,102582.86
2018-12-25T19:34:11.246Z,102586.55
2018-12-25T19:37:16.375Z,102585.20
2018-12-25T19:40:22.519Z,102589.56
2018-12-25T19:43:27.803Z,102589.56
2018-12-25T19:46:32.964Z,102582.66
2018-12-25T19:49:38.224Z,102573.04
2018-12-25T19:52:43.389Z,102563.09
2018-12-25T19:55:48.546Z,102571.04
2018-12-25T19:58:53.736Z,102578.66
2018-12-25T20:01:59.051Z,102585.25
2018-12-25T20:05:31.942Z,102577.14
2018-12-25T20:09:02.686Z,102583.90
2018-12-25T20:13:06.015Z,102581.84
2018-12-25T20:17:18.045Z,102584.22
2018-12-25T20:20:47.635Z,102585.67
2018-12-25T20:24:22.480Z,102579.80
2018-12-25T20:28:17.227Z,102581.14
2018-12-25T20:32:40.289Z,102584.55
2018-12-25T20:36:52.800Z,102588.05
2018-12-25T20:40:50.414Z,102578.75
2018-12-25T20:44:52.122Z,102569.28
2018-12-25T20:49:01.874Z,102565.07
2018-12-25T20:52:46.164Z,102562.37
2018-12-25T20:56:51.278Z,102562.91
2018-12-25T21:00:47.521Z,102561.04
2018-12-25T21:04:45.610Z,102562.70
2018-12-25T21:08:50.270Z,102559.84
2018-12-25T21:13:02.129Z,102572.53
2018-12-25T21:17:05.311Z,102556.58
2018-12-25T21:21:01.583Z,102557.70
2018-12-25T21:25:00.606Z,102547.34
2018-12-25T21:28:03.686Z,102549.95
2018-12-25T21:31:09.716Z,102552.64
2018-12-25T21:34:15.052Z,102553.30
2018-12-25T21:37:20.403Z,102544.72
2018-12-25T21:40:25.743Z,102538.90
2018-12-25T21:43:31.596Z,102552.91
2018-12-25T21:46:37.323Z,102546.62
2018-12-25T21:49:47.682Z,102539.20
2018-12-25T21:52:54.397Z,102537.17
2018-12-25T21:56:00.683Z,102541.75
2018-12-25T21:59:05.789Z,102539.39
2018-12-25T22:02:10.976Z,102536.35
2018-12-25T22:05:16.385Z,102533.83
2018-12-25T22:08:21.537Z,102536.20
2018-12-25T22:11:26.634Z,102538.22
2018-12-25T22:14:31.771Z,102528.13
2018-12-25T22:17:37.041Z,102521.21
2018-12-25T22:20:42.205Z,102529.00
2018-12-25T22:23:47.345Z,102519.39
2018-12-25T22:26:52.550Z,102517.73
2018-12-25T22:29:57.642Z,102516.77
2018-12-25T22:33:02.764Z,102516.82
2018-12-25T22:36:07.856Z,102524.06
2018-12-25T22:39:12.983Z,102513.48
2018-12-25T22:42:18.156Z,102513.33
2018-12-25T22:45:23.271Z,102517.90
2018-12-25T22:48:28.442Z,102505.73
2018-12-25T22:51:33.817Z,102504.75
2018-12-25T22:54:39.054Z,102505.97
2018-12-25T22:57:46.373Z,102504.13
2018-12-25T23:00:51.829Z,102506.19
2018-12-25T23:03:56.971Z,102506.41
2018-12-25T23:07:02.069Z,102504.52
2018-12-25T23:10:09.294Z,102504.52
2018-12-25T23:13:14.386Z,102504.90
2018-12-25T23:16:19.485Z,102504.25
2018-12-25T23:19:24.619Z,102500.36
2018-12-25T23:22:29.713Z,102484.64
2018-12-25T23:25:34.854Z,102484.80
2018-12-25T23:28:40.032Z,102501.55
2018-12-25T23:31:45.160Z,102503.28
2018-12-25T23:34:50.308Z,102499.56
2018-12-25T23:37:55.411Z,102484.52
2018-12-25T23:41:00.508Z,102485.55
2018-12-25T23:44:05.748Z,102492.64
2018-12-25T23:47:10.838Z,102481.67
2018-12-25T23:50:15.939Z,102477.13
2018-12-25T23:53:21.148Z,102472.41
2018-12-25T23:56:26.266Z,102459.92
2018-12-25T23:59:31.406Z,102451.48
